Terminal Aerodrome Forecast
Issued by NWS

Home | Current Version | Previous Version | Graphics & Text | Print | Product List | Glossary On
Versions: 1 2 3 4 5 6 7 8 9 10 11 12 13 14 15 16 17 18 19 20 21 22
000
FTUS43 KICT 050352 AAA
TAFHUT
TAF AMD
KHUT 050352Z 0504/0524 14007KT P6SM VCSH SCT070 OVC250
     FM050700 15008KT P6SM SCT035 BKN100
     FM051400 16015G22KT P6SM SCT040 BKN120
     FM052300 17015G22KT P6SM VCTS SCT050CB BKN080=

USA.gov is the U.S. government's official web portal to all federal, state and local government web resources and services.